createdAt,value
2022-10-02T00:09:13.774Z,4
2022-10-02T00:37:53.245Z,3
2022-10-02T01:06:37.813Z,4
2022-10-02T01:35:10.908Z,3
2022-10-02T02:03:57.507Z,3
2022-10-02T02:32:34.942Z,3
2022-10-02T03:01:20.758Z,4
2022-10-02T03:30:03.825Z,3
2022-10-02T03:58:51.312Z,4
2022-10-02T04:27:38.410Z,3
2022-10-02T04:56:12.921Z,3
2022-10-02T05:24:50.717Z,4
2022-10-02T05:53:28.686Z,4
2022-10-02T06:22:07.960Z,4
2022-10-02T06:50:53.444Z,4
2022-10-02T07:19:29.604Z,3
2022-10-02T07:48:17.583Z,3
2022-10-02T08:17:04.125Z,3
2022-10-02T08:45:35.746Z,3
2022-10-02T09:14:12.562Z,4
2022-10-02T09:42:40.684Z,1
2022-10-02T10:11:15.973Z,1
2022-10-02T10:39:57.462Z,1
2022-10-02T11:08:22.934Z,1
2022-10-02T11:36:55.847Z,3
2022-10-02T12:05:33.396Z,4
2022-10-02T12:33:58.803Z,13
2022-10-02T13:03:00.178Z,1
2022-10-02T13:31:02.942Z,1
2022-10-02T13:59:45.225Z,6
2022-10-02T14:28:19.049Z,3
2022-10-02T14:56:41.102Z,3
2022-10-02T15:25:06.860Z,3
2022-10-02T15:53:41.120Z,10
2022-10-02T16:22:02.294Z,10
2022-10-02T16:50:34.642Z,4
2022-10-02T17:18:49.778Z,3
2022-10-02T17:47:14.147Z,4
2022-10-02T18:15:53.953Z,7
2022-10-02T18:44:27.093Z,5
2022-10-02T19:13:03.278Z,5
2022-10-02T19:41:27.409Z,4
2022-10-02T20:10:09.004Z,6
2022-10-02T20:38:51.864Z,6
2022-10-02T21:07:23.386Z,6
2022-10-02T21:35:58.234Z,6
2022-10-02T22:04:44.603Z,7
2022-10-02T22:33:20.554Z,11
2022-10-02T23:02:04.313Z,13
2022-10-02T23:30:44.642Z,14
2022-10-02T23:59:25.184Z,13
